鹿児島空港の過去48時間の天気

鹿児島空港 (Kagoshima)

現在時刻: 9/19 08:26 JST (9/18 23:26 UTC) 以下の時間は現地時間です。

過去48時間のMETAR気象情報
時間 風向 風速(m/s) 視程 気温(℃) 湿度(%) 気圧(hPa) 天気現象
19 08:00 不定 1 10km以上 21 94 1013
19 07:00 2 10km以上 19 100 1013 周辺で霧
19 06:00 1 10km以上 18 100 1013 周辺で霧
RJFK 182300Z VRB02KT 9999 FEW005 21/20 Q1013 RMK 1ST005 A2994
RJFK 182200Z 01004KT 9999 VCFG FEW005 19/19 Q1013 RMK 1ST005 A2993 FG N-E
RJFK 182100Z 01001KT 9999 VCFG FEW005 18/18 Q1013 RMK 1ST005 A2992 FG N-E